sensor_id;sensor_type;location;lat;lon;timestamp;temperature;humidity
3921;DHT22;1975;49.356;6.816;2023-02-26T00:01:35;5.80;99.90
3921;DHT22;1975;49.356;6.816;2023-02-26T00:04:01;5.80;99.90
3921;DHT22;1975;49.356;6.816;2023-02-26T00:06:28;5.70;99.90
3921;DHT22;1975;49.356;6.816;2023-02-26T00:08:55;5.70;99.90
3921;DHT22;1975;49.356;6.816;2023-02-26T00:11:21;5.70;99.90
3921;DHT22;1975;49.356;6.816;2023-02-26T00:13:46;5.70;99.90
3921;DHT22;1975;49.356;6.816;2023-02-26T00:16:14;5.70;99.90
3921;DHT22;1975;49.356;6.816;2023-02-26T00:18:43;5.70;99.90
3921;DHT22;1975;49.356;6.816;2023-02-26T00:21:13;5.70;99.90
3921;DHT22;1975;49.356;6.816;2023-02-26T00:23:39;5.70;99.90
3921;DHT22;1975;49.356;6.816;2023-02-26T00:26:04;5.70;99.90
3921;DHT22;1975;49.356;6.816;2023-02-26T00:28:30;5.60;99.90
3921;DHT22;1975;49.356;6.816;2023-02-26T00:30:55;5.60;99.90
3921;DHT22;1975;49.356;6.816;2023-02-26T00:33:21;5.60;99.90
3921;DHT22;1975;49.356;6.816;2023-02-26T00:35:46;5.60;99.90
3921;DHT22;1975;49.356;6.816;2023-02-26T00:38:12;5.60;99.90
3921;DHT22;1975;49.356;6.816;2023-02-26T00:40:47;5.60;99.90
3921;DHT22;1975;49.356;6.816;2023-02-26T00:43:14;5.60;99.90
3921;DHT22;1975;49.356;6.816;2023-02-26T00:46:27;5.60;99.90
3921;DHT22;1975;49.356;6.816;2023-02-26T00:51:15;5.50;99.90
3921;DHT22;1975;49.356;6.816;2023-02-26T00:53:46;5.50;99.90
3921;DHT22;1975;49.356;6.816;2023-02-26T00:56:13;5.50;99.90
3921;DHT22;1975;49.356;6.816;2023-02-26T00:58:39;5.50;99.90
3921;DHT22;1975;49.356;6.816;2023-02-26T01:01:04;5.50;99.90
3921;DHT22;1975;49.356;6.816;2023-02-26T01:03:30;5.50;99.90
3921;DHT22;1975;49.356;6.816;2023-02-26T01:05:56;5.50;99.90
3921;DHT22;1975;49.356;6.816;2023-02-26T01:08:23;5.50;99.90
3921;DHT22;1975;49.356;6.816;2023-02-26T01:10:53;5.50;99.90
3921;DHT22;1975;49.356;6.816;2023-02-26T01:13:19;5.40;99.90
3921;DHT22;1975;49.356;6.816;2023-02-26T01:15:46;5.40;99.90
3921;DHT22;1975;49.356;6.816;2023-02-26T01:18:15;5.40;99.90
3921;DHT22;1975;49.356;6.816;2023-02-26T01:20:47;5.40;99.90
3921;DHT22;1975;49.356;6.816;2023-02-26T01:23:15;5.40;99.90
3921;DHT22;1975;49.356;6.816;2023-02-26T01:28:12;5.40;99.90
3921;DHT22;1975;49.356;6.816;2023-02-26T01:30:37;5.40;99.90
3921;DHT22;1975;49.356;6.816;2023-02-26T01:35:54;5.40;99.90
3921;DHT22;1975;49.356;6.816;2023-02-26T01:43:27;5.30;99.90
3921;DHT22;1975;49.356;6.816;2023-02-26T01:46:00;5.30;99.90
3921;DHT22;1975;49.356;6.816;2023-02-26T01:48:35;5.30;99.90
3921;DHT22;1975;49.356;6.816;2023-02-26T01:51:00;5.30;99.90
3921;DHT22;1975;49.356;6.816;2023-02-26T01:53:26;5.30;99.90
3921;DHT22;1975;49.356;6.816;2023-02-26T01:55:54;5.30;99.90
3921;DHT22;1975;49.356;6.816;2023-02-26T01:58:20;5.30;99.90
3921;DHT22;1975;49.356;6.816;2023-02-26T02:00:46;5.30;99.90
3921;DHT22;1975;49.356;6.816;2023-02-26T02:03:12;5.30;99.90
3921;DHT22;1975;49.356;6.816;2023-02-26T02:05:41;5.20;99.90
3921;DHT22;1975;49.356;6.816;2023-02-26T02:08:08;5.20;99.90
3921;DHT22;1975;49.356;6.816;2023-02-26T02:10:33;5.20;99.90
3921;DHT22;1975;49.356;6.816;2023-02-26T02:13:03;5.20;99.90
3921;DHT22;1975;49.356;6.816;2023-02-26T02:15:36;5.20;99.90
3921;DHT22;1975;49.356;6.816;2023-02-26T02:20:42;5.20;99.90
3921;DHT22;1975;49.356;6.816;2023-02-26T02:23:16;5.20;99.90
3921;DHT22;1975;49.356;6.816;2023-02-26T02:31:27;5.10;99.90
3921;DHT22;1975;49.356;6.816;2023-02-26T02:34:02;5.10;99.90
3921;DHT22;1975;49.356;6.816;2023-02-26T02:39:07;5.10;99.90
3921;DHT22;1975;49.356;6.816;2023-02-26T02:41:37;5.10;99.90
3921;DHT22;1975;49.356;6.816;2023-02-26T02:44:06;5.10;99.90
3921;DHT22;1975;49.356;6.816;2023-02-26T02:46:33;5.00;99.90
3921;DHT22;1975;49.356;6.816;2023-02-26T02:49:01;5.00;99.90
3921;DHT22;1975;49.356;6.816;2023-02-26T02:51:29;5.00;99.90
3921;DHT22;1975;49.356;6.816;2023-02-26T02:54:07;5.00;99.90
3921;DHT22;1975;49.356;6.816;2023-02-26T02:59:22;5.00;99.90
3921;DHT22;1975;49.356;6.816;2023-02-26T03:01:50;5.00;99.90
3921;DHT22;1975;49.356;6.816;2023-02-26T03:04:18;5.00;99.90
3921;DHT22;1975;49.356;6.816;2023-02-26T03:06:43;5.00;99.90
3921;DHT22;1975;49.356;6.816;2023-02-26T03:09:14;5.00;99.90
3921;DHT22;1975;49.356;6.816;2023-02-26T03:11:40;5.00;99.90
3921;DHT22;1975;49.356;6.816;2023-02-26T03:14:06;5.00;99.90
3921;DHT22;1975;49.356;6.816;2023-02-26T03:19:13;5.00;99.90
3921;DHT22;1975;49.356;6.816;2023-02-26T03:22:31;4.90;99.90
3921;DHT22;1975;49.356;6.816;2023-02-26T03:24:28;4.90;99.90
3921;DHT22;1975;49.356;6.816;2023-02-26T03:26:58;4.90;99.90
3921;DHT22;1975;49.356;6.816;2023-02-26T03:29:37;4.90;99.90
3921;DHT22;1975;49.356;6.816;2023-02-26T03:32:08;4.90;99.90
3921;DHT22;1975;49.356;6.816;2023-02-26T03:37:22;4.90;99.90
3921;DHT22;1975;49.356;6.816;2023-02-26T03:39:47;4.90;99.90
3921;DHT22;1975;49.356;6.816;2023-02-26T03:42:15;4.90;99.90
3921;DHT22;1975;49.356;6.816;2023-02-26T03:44:46;4.80;99.90
3921;DHT22;1975;49.356;6.816;2023-02-26T03:47:13;4.80;99.90
3921;DHT22;1975;49.356;6.816;2023-02-26T03:49:44;4.80;99.90
3921;DHT22;1975;49.356;6.816;2023-02-26T03:52:10;4.80;99.90
3921;DHT22;1975;49.356;6.816;2023-02-26T03:54:37;4.80;99.90
3921;DHT22;1975;49.356;6.816;2023-02-26T03:57:04;4.80;99.90
3921;DHT22;1975;49.356;6.816;2023-02-26T03:59:29;4.80;99.90
3921;DHT22;1975;49.356;6.816;2023-02-26T04:01:58;4.80;99.90
3921;DHT22;1975;49.356;6.816;2023-02-26T04:04:27;4.80;99.90
3921;DHT22;1975;49.356;6.816;2023-02-26T04:06:54;4.80;99.90
3921;DHT22;1975;49.356;6.816;2023-02-26T04:09:20;4.80;99.90
3921;DHT22;1975;49.356;6.816;2023-02-26T04:11:46;4.80;99.90
3921;DHT22;1975;49.356;6.816;2023-02-26T04:14:12;4.80;99.90
3921;DHT22;1975;49.356;6.816;2023-02-26T04:16:38;4.70;99.90
3921;DHT22;1975;49.356;6.816;2023-02-26T04:19:03;4.70;99.90
3921;DHT22;1975;49.356;6.816;2023-02-26T04:21:29;4.70;99.90
3921;DHT22;1975;49.356;6.816;2023-02-26T04:23:54;4.70;99.90
3921;DHT22;1975;49.356;6.816;2023-02-26T04:26:22;4.70;99.90
3921;DHT22;1975;49.356;6.816;2023-02-26T04:28:48;4.70;99.90
3921;DHT22;1975;49.356;6.816;2023-02-26T04:31:13;4.70;99.90
3921;DHT22;1975;49.356;6.816;2023-02-26T04:33:39;4.70;99.90
3921;DHT22;1975;49.356;6.816;2023-02-26T04:36:05;4.70;99.90
3921;DHT22;1975;49.356;6.816;2023-02-26T04:38:30;4.60;99.90
3921;DHT22;1975;49.356;6.816;2023-02-26T04:40:56;4.60;99.90
3921;DHT22;1975;49.356;6.816;2023-02-26T04:43:21;4.60;99.90
3921;DHT22;1975;49.356;6.816;2023-02-26T04:45:47;4.60;99.90
3921;DHT22;1975;49.356;6.816;2023-02-26T04:48:13;4.60;99.90
3921;DHT22;1975;49.356;6.816;2023-02-26T04:50:39;4.60;99.90
3921;DHT22;1975;49.356;6.816;2023-02-26T04:53:05;4.60;99.90
3921;DHT22;1975;49.356;6.816;2023-02-26T04:55:30;4.60;99.90
3921;DHT22;1975;49.356;6.816;2023-02-26T04:57:56;4.60;99.90
3921;DHT22;1975;49.356;6.816;2023-02-26T05:00:21;4.60;99.90
3921;DHT22;1975;49.356;6.816;2023-02-26T05:02:47;4.60;99.90
3921;DHT22;1975;49.356;6.816;2023-02-26T05:05:12;4.60;99.90
3921;DHT22;1975;49.356;6.816;2023-02-26T05:07:38;4.60;99.90
3921;DHT22;1975;49.356;6.816;2023-02-26T05:10:05;4.60;99.90
3921;DHT22;1975;49.356;6.816;2023-02-26T05:12:30;4.60;99.90
3921;DHT22;1975;49.356;6.816;2023-02-26T05:14:56;4.60;99.90
3921;DHT22;1975;49.356;6.816;2023-02-26T05:17:21;4.60;99.90
3921;DHT22;1975;49.356;6.816;2023-02-26T05:19:47;4.60;99.90
3921;DHT22;1975;49.356;6.816;2023-02-26T05:22:12;4.60;99.90
3921;DHT22;1975;49.356;6.816;2023-02-26T05:24:38;4.60;99.90
3921;DHT22;1975;49.356;6.816;2023-02-26T05:27:03;4.60;99.90
3921;DHT22;1975;49.356;6.816;2023-02-26T05:29:29;4.60;99.90
3921;DHT22;1975;49.356;6.816;2023-02-26T05:31:55;4.60;99.90
3921;DHT22;1975;49.356;6.816;2023-02-26T05:34:20;4.60;99.90
3921;DHT22;1975;49.356;6.816;2023-02-26T05:36:46;4.60;99.90
3921;DHT22;1975;49.356;6.816;2023-02-26T05:39:11;4.60;99.90
3921;DHT22;1975;49.356;6.816;2023-02-26T05:41:37;4.60;99.90
3921;DHT22;1975;49.356;6.816;2023-02-26T05:44:03;4.60;99.90
3921;DHT22;1975;49.356;6.816;2023-02-26T05:46:28;4.60;99.90
3921;DHT22;1975;49.356;6.816;2023-02-26T05:48:53;4.50;99.90
3921;DHT22;1975;49.356;6.816;2023-02-26T05:51:19;4.50;99.90
3921;DHT22;1975;49.356;6.816;2023-02-26T05:53:44;4.50;99.90
3921;DHT22;1975;49.356;6.816;2023-02-26T05:56:10;4.50;99.90
3921;DHT22;1975;49.356;6.816;2023-02-26T05:58:36;4.50;99.90
3921;DHT22;1975;49.356;6.816;2023-02-26T06:01:01;4.50;99.90
3921;DHT22;1975;49.356;6.816;2023-02-26T06:03:27;4.50;99.90
3921;DHT22;1975;49.356;6.816;2023-02-26T06:05:52;4.50;99.90
3921;DHT22;1975;49.356;6.816;2023-02-26T06:08:18;4.50;99.90
3921;DHT22;1975;49.356;6.816;2023-02-26T06:10:43;4.50;99.90
3921;DHT22;1975;49.356;6.816;2023-02-26T06:13:09;4.50;99.90
3921;DHT22;1975;49.356;6.816;2023-02-26T06:15:34;4.50;99.90
3921;DHT22;1975;49.356;6.816;2023-02-26T06:18:00;4.40;99.90
3921;DHT22;1975;49.356;6.816;2023-02-26T06:20:25;4.40;99.90
3921;DHT22;1975;49.356;6.816;2023-02-26T06:22:52;4.50;99.90
3921;DHT22;1975;49.356;6.816;2023-02-26T06:25:17;4.40;99.90
3921;DHT22;1975;49.356;6.816;2023-02-26T06:27:43;4.40;99.90
3921;DHT22;1975;49.356;6.816;2023-02-26T06:30:08;4.40;99.90
3921;DHT22;1975;49.356;6.816;2023-02-26T06:32:34;4.40;99.90
3921;DHT22;1975;49.356;6.816;2023-02-26T06:34:59;4.40;99.90
3921;DHT22;1975;49.356;6.816;2023-02-26T06:37:25;4.40;99.90
3921;DHT22;1975;49.356;6.816;2023-02-26T06:39:50;4.40;99.90
3921;DHT22;1975;49.356;6.816;2023-02-26T06:42:16;4.40;99.90
3921;DHT22;1975;49.356;6.816;2023-02-26T06:44:41;4.40;99.90
3921;DHT22;1975;49.356;6.816;2023-02-26T06:47:07;4.40;99.90
3921;DHT22;1975;49.356;6.816;2023-02-26T06:49:32;4.40;99.90
3921;DHT22;1975;49.356;6.816;2023-02-26T06:51:58;4.40;99.90
3921;DHT22;1975;49.356;6.816;2023-02-26T06:54:23;4.40;99.90
3921;DHT22;1975;49.356;6.816;2023-02-26T06:56:48;4.40;99.90
3921;DHT22;1975;49.356;6.816;2023-02-26T06:59:14;4.40;99.90
3921;DHT22;1975;49.356;6.816;2023-02-26T07:01:40;4.40;99.90
3921;DHT22;1975;49.356;6.816;2023-02-26T07:04:05;4.40;99.90
3921;DHT22;1975;49.356;6.816;2023-02-26T07:06:31;4.40;99.90
3921;DHT22;1975;49.356;6.816;2023-02-26T07:08:56;4.40;99.90
3921;DHT22;1975;49.356;6.816;2023-02-26T07:11:22;4.40;99.90
3921;DHT22;1975;49.356;6.816;2023-02-26T07:13:47;4.40;99.90
3921;DHT22;1975;49.356;6.816;2023-02-26T07:16:13;4.40;99.90
3921;DHT22;1975;49.356;6.816;2023-02-26T07:18:38;4.40;99.90
3921;DHT22;1975;49.356;6.816;2023-02-26T07:21:04;4.40;99.90
3921;DHT22;1975;49.356;6.816;2023-02-26T07:23:29;4.40;99.90
3921;DHT22;1975;49.356;6.816;2023-02-26T07:25:55;4.40;99.90
3921;DHT22;1975;49.356;6.816;2023-02-26T07:28:22;4.40;99.90
3921;DHT22;1975;49.356;6.816;2023-02-26T07:30:47;4.40;99.90
3921;DHT22;1975;49.356;6.816;2023-02-26T07:33:13;4.30;99.90
3921;DHT22;1975;49.356;6.816;2023-02-26T07:35:38;4.40;99.90
3921;DHT22;1975;49.356;6.816;2023-02-26T07:38:04;4.40;99.90
3921;DHT22;1975;49.356;6.816;2023-02-26T07:40:30;4.40;99.90
3921;DHT22;1975;49.356;6.816;2023-02-26T07:42:55;4.40;99.90
3921;DHT22;1975;49.356;6.816;2023-02-26T07:45:21;4.40;99.90
3921;DHT22;1975;49.356;6.816;2023-02-26T07:47:47;4.30;99.90
3921;DHT22;1975;49.356;6.816;2023-02-26T07:50:13;4.30;99.90
3921;DHT22;1975;49.356;6.816;2023-02-26T07:52:38;4.30;99.90
3921;DHT22;1975;49.356;6.816;2023-02-26T07:55:04;4.30;99.90
3921;DHT22;1975;49.356;6.816;2023-02-26T07:57:30;4.30;99.90
3921;DHT22;1975;49.356;6.816;2023-02-26T07:59:55;4.30;99.90
3921;DHT22;1975;49.356;6.816;2023-02-26T08:02:21;4.30;99.90
3921;DHT22;1975;49.356;6.816;2023-02-26T08:04:47;4.30;99.90
3921;DHT22;1975;49.356;6.816;2023-02-26T08:07:13;4.30;99.90
3921;DHT22;1975;49.356;6.816;2023-02-26T08:09:38;4.30;99.90
3921;DHT22;1975;49.356;6.816;2023-02-26T08:12:04;4.30;99.90
3921;DHT22;1975;49.356;6.816;2023-02-26T08:14:29;4.30;99.90
3921;DHT22;1975;49.356;6.816;2023-02-26T08:16:55;4.20;99.90
3921;DHT22;1975;49.356;6.816;2023-02-26T08:19:20;4.30;99.90
3921;DHT22;1975;49.356;6.816;2023-02-26T08:21:46;4.30;99.90
3921;DHT22;1975;49.356;6.816;2023-02-26T08:24:11;4.30;99.90
3921;DHT22;1975;49.356;6.816;2023-02-26T08:26:37;4.30;99.90
3921;DHT22;1975;49.356;6.816;2023-02-26T08:29:02;4.20;99.90
3921;DHT22;1975;49.356;6.816;2023-02-26T08:31:28;4.30;99.90
3921;DHT22;1975;49.356;6.816;2023-02-26T08:33:55;4.30;99.90
3921;DHT22;1975;49.356;6.816;2023-02-26T08:36:22;4.30;99.90
3921;DHT22;1975;49.356;6.816;2023-02-26T08:38:47;4.30;99.90
3921;DHT22;1975;49.356;6.816;2023-02-26T08:41:13;4.30;99.90
3921;DHT22;1975;49.356;6.816;2023-02-26T08:43:38;4.30;99.90
3921;DHT22;1975;49.356;6.816;2023-02-26T08:46:04;4.20;99.90
3921;DHT22;1975;49.356;6.816;2023-02-26T08:48:30;4.30;99.90
3921;DHT22;1975;49.356;6.816;2023-02-26T08:50:55;4.30;99.90
3921;DHT22;1975;49.356;6.816;2023-02-26T08:53:20;4.20;99.90
3921;DHT22;1975;49.356;6.816;2023-02-26T08:55:49;4.30;99.90
3921;DHT22;1975;49.356;6.816;2023-02-26T08:58:15;4.30;99.90
3921;DHT22;1975;49.356;6.816;2023-02-26T09:00:41;4.30;99.90
3921;DHT22;1975;49.356;6.816;2023-02-26T09:03:06;4.30;99.90
3921;DHT22;1975;49.356;6.816;2023-02-26T09:05:32;4.30;99.90
3921;DHT22;1975;49.356;6.816;2023-02-26T09:07:58;4.30;99.90
3921;DHT22;1975;49.356;6.816;2023-02-26T09:10:23;4.20;99.90
3921;DHT22;1975;49.356;6.816;2023-02-26T09:12:49;4.30;99.90
3921;DHT22;1975;49.356;6.816;2023-02-26T09:15:14;4.30;99.90
3921;DHT22;1975;49.356;6.816;2023-02-26T09:17:40;4.30;99.90
3921;DHT22;1975;49.356;6.816;2023-02-26T09:20:05;4.30;99.90
3921;DHT22;1975;49.356;6.816;2023-02-26T09:22:31;4.30;99.90
3921;DHT22;1975;49.356;6.816;2023-02-26T09:24:57;4.30;99.90
3921;DHT22;1975;49.356;6.816;2023-02-26T09:27:22;4.30;99.90
3921;DHT22;1975;49.356;6.816;2023-02-26T09:29:48;4.30;99.90
3921;DHT22;1975;49.356;6.816;2023-02-26T09:32:13;4.30;99.90
3921;DHT22;1975;49.356;6.816;2023-02-26T09:34:39;4.30;99.90
3921;DHT22;1975;49.356;6.816;2023-02-26T09:37:05;4.30;99.90
3921;DHT22;1975;49.356;6.816;2023-02-26T09:39:31;4.30;99.90
3921;DHT22;1975;49.356;6.816;2023-02-26T09:42:05;4.30;99.90
3921;DHT22;1975;49.356;6.816;2023-02-26T09:44:35;4.30;99.90
3921;DHT22;1975;49.356;6.816;2023-02-26T09:47:13;4.30;99.90
3921;DHT22;1975;49.356;6.816;2023-02-26T09:49:46;4.30;99.90
3921;DHT22;1975;49.356;6.816;2023-02-26T09:54:43;3.30;99.90
3921;DHT22;1975;49.356;6.816;2023-02-26T09:57:10;3.40;99.90
3921;DHT22;1975;49.356;6.816;2023-02-26T09:59:38;3.50;99.90
3921;DHT22;1975;49.356;6.816;2023-02-26T10:06:58;3.80;99.90
3921;DHT22;1975;49.356;6.816;2023-02-26T10:12:19;3.90;99.90
3921;DHT22;1975;49.356;6.816;2023-02-26T10:19:46;4.00;99.90
3921;DHT22;1975;49.356;6.816;2023-02-26T10:22:15;3.90;99.90
3921;DHT22;1975;49.356;6.816;2023-02-26T10:24:48;3.90;99.90
3921;DHT22;1975;49.356;6.816;2023-02-26T10:27:16;4.00;99.90
3921;DHT22;1975;49.356;6.816;2023-02-26T10:29:44;4.00;99.90
3921;DHT22;1975;49.356;6.816;2023-02-26T10:32:29;4.00;99.90
3921;DHT22;1975;49.356;6.816;2023-02-26T10:42:43;4.00;99.90
3921;DHT22;1975;49.356;6.816;2023-02-26T10:45:23;4.00;99.90
3921;DHT22;1975;49.356;6.816;2023-02-26T10:50:36;4.00;99.90
3921;DHT22;1975;49.356;6.816;2023-02-26T10:53:03;4.00;99.90
3921;DHT22;1975;49.356;6.816;2023-02-26T10:55:37;4.00;99.90
3921;DHT22;1975;49.356;6.816;2023-02-26T10:58:16;4.00;99.90
3921;DHT22;1975;49.356;6.816;2023-02-26T11:00:43;4.00;99.90
3921;DHT22;1975;49.356;6.816;2023-02-26T11:03:12;4.00;99.90
3921;DHT22;1975;49.356;6.816;2023-02-26T11:05:39;4.10;99.90
3921;DHT22;1975;49.356;6.816;2023-02-26T11:08:17;4.10;99.90
3921;DHT22;1975;49.356;6.816;2023-02-26T11:13:11;4.00;99.90
3921;DHT22;1975;49.356;6.816;2023-02-26T11:15:37;4.00;99.90
3921;DHT22;1975;49.356;6.816;2023-02-26T11:18:03;4.00;99.90
3921;DHT22;1975;49.356;6.816;2023-02-26T11:20:30;4.00;99.90
3921;DHT22;1975;49.356;6.816;2023-02-26T11:22:57;4.00;99.90
3921;DHT22;1975;49.356;6.816;2023-02-26T11:25:26;4.00;99.90
3921;DHT22;1975;49.356;6.816;2023-02-26T11:28:06;4.00;99.90
3921;DHT22;1975;49.356;6.816;2023-02-26T11:30:36;4.00;99.90
3921;DHT22;1975;49.356;6.816;2023-02-26T11:34:03;4.00;99.90
3921;DHT22;1975;49.356;6.816;2023-02-26T11:35:58;4.00;99.90
3921;DHT22;1975;49.356;6.816;2023-02-26T11:38:24;4.00;99.90
3921;DHT22;1975;49.356;6.816;2023-02-26T11:40:55;4.10;99.90
3921;DHT22;1975;49.356;6.816;2023-02-26T11:43:21;4.10;99.90
3921;DHT22;1975;49.356;6.816;2023-02-26T11:45:58;4.00;99.90
3921;DHT22;1975;49.356;6.816;2023-02-26T11:48:26;4.10;99.90
3921;DHT22;1975;49.356;6.816;2023-02-26T11:50:56;4.00;99.90
3921;DHT22;1975;49.356;6.816;2023-02-26T11:53:24;4.00;99.90
3921;DHT22;1975;49.356;6.816;2023-02-26T11:55:51;4.00;99.90
3921;DHT22;1975;49.356;6.816;2023-02-26T11:58:19;4.00;99.90
3921;DHT22;1975;49.356;6.816;2023-02-26T12:00:44;4.00;99.90
3921;DHT22;1975;49.356;6.816;2023-02-26T12:03:14;4.00;99.90
3921;DHT22;1975;49.356;6.816;2023-02-26T12:05:40;4.00;99.90
3921;DHT22;1975;49.356;6.816;2023-02-26T12:08:16;4.00;99.90
3921;DHT22;1975;49.356;6.816;2023-02-26T12:10:46;4.00;99.90
3921;DHT22;1975;49.356;6.816;2023-02-26T12:13:17;4.00;99.90
3921;DHT22;1975;49.356;6.816;2023-02-26T12:15:55;4.00;99.90
3921;DHT22;1975;49.356;6.816;2023-02-26T12:18:31;4.00;99.90
3921;DHT22;1975;49.356;6.816;2023-02-26T12:21:02;4.10;99.90
3921;DHT22;1975;49.356;6.816;2023-02-26T12:23:34;4.10;99.90
3921;DHT22;1975;49.356;6.816;2023-02-26T12:26:48;4.10;99.90
3921;DHT22;1975;49.356;6.816;2023-02-26T12:28:51;4.10;99.90
3921;DHT22;1975;49.356;6.816;2023-02-26T12:41:53;3.40;99.90
3921;DHT22;1975;49.356;6.816;2023-02-26T12:49:53;3.30;99.90
3921;DHT22;1975;49.356;6.816;2023-02-26T12:57:46;3.80;99.90
3921;DHT22;1975;49.356;6.816;2023-02-26T13:05:45;3.90;99.90
3921;DHT22;1975;49.356;6.816;2023-02-26T13:10:52;3.90;99.90
3921;DHT22;1975;49.356;6.816;2023-02-26T13:15:52;3.90;99.90
3921;DHT22;1975;49.356;6.816;2023-02-26T13:18:30;3.90;99.90
3921;DHT22;1975;49.356;6.816;2023-02-26T13:21:06;3.90;99.90
3921;DHT22;1975;49.356;6.816;2023-02-26T13:23:35;4.00;99.90
3921;DHT22;1975;49.356;6.816;2023-02-26T13:26:05;4.00;99.90
3921;DHT22;1975;49.356;6.816;2023-02-26T13:31:28;4.00;99.90
3921;DHT22;1975;49.356;6.816;2023-02-26T13:33:55;4.00;99.90
3921;DHT22;1975;49.356;6.816;2023-02-26T13:36:23;4.00;99.90
3921;DHT22;1975;49.356;6.816;2023-02-26T13:38:56;4.00;99.90
3921;DHT22;1975;49.356;6.816;2023-02-26T13:49:35;4.00;99.90
3921;DHT22;1975;49.356;6.816;2023-02-26T13:52:05;4.00;99.90
3921;DHT22;1975;49.356;6.816;2023-02-26T13:54:47;4.10;99.90
3921;DHT22;1975;49.356;6.816;2023-02-26T13:59:45;4.00;99.90
3921;DHT22;1975;49.356;6.816;2023-02-26T14:04:50;4.10;99.90
3921;DHT22;1975;49.356;6.816;2023-02-26T14:07:16;4.10;99.90
3921;DHT22;1975;49.356;6.816;2023-02-26T14:10:00;4.10;99.90
3921;DHT22;1975;49.356;6.816;2023-02-26T14:12:39;4.10;99.90
3921;DHT22;1975;49.356;6.816;2023-02-26T14:15:17;4.10;99.90
3921;DHT22;1975;49.356;6.816;2023-02-26T14:17:48;4.10;99.90
3921;DHT22;1975;49.356;6.816;2023-02-26T14:22:39;4.10;99.90
3921;DHT22;1975;49.356;6.816;2023-02-26T14:27:34;4.10;99.90
3921;DHT22;1975;49.356;6.816;2023-02-26T14:32:45;4.10;99.90
3921;DHT22;1975;49.356;6.816;2023-02-26T14:38:28;4.10;99.90
3921;DHT22;1975;49.356;6.816;2023-02-26T14:40:57;4.10;99.90
3921;DHT22;1975;49.356;6.816;2023-02-26T14:43:35;4.20;99.90
3921;DHT22;1975;49.356;6.816;2023-02-26T14:46:01;4.20;99.90
3921;DHT22;1975;49.356;6.816;2023-02-26T14:48:28;4.10;99.90
3921;DHT22;1975;49.356;6.816;2023-02-26T14:58:47;4.20;99.90
3921;DHT22;1975;49.356;6.816;2023-02-26T15:01:36;4.20;99.90
3921;DHT22;1975;49.356;6.816;2023-02-26T15:06:45;4.20;99.90
3921;DHT22;1975;49.356;6.816;2023-02-26T15:11:49;4.20;99.90
3921;DHT22;1975;49.356;6.816;2023-02-26T15:19:55;4.20;99.90
3921;DHT22;1975;49.356;6.816;2023-02-26T15:25:18;4.30;99.90
3921;DHT22;1975;49.356;6.816;2023-02-26T15:27:46;4.30;99.90
3921;DHT22;1975;49.356;6.816;2023-02-26T15:30:13;4.30;99.90
3921;DHT22;1975;49.356;6.816;2023-02-26T15:32:39;4.30;99.90
3921;DHT22;1975;49.356;6.816;2023-02-26T15:37:36;4.20;99.90
3921;DHT22;1975;49.356;6.816;2023-02-26T15:40:03;4.30;99.90
3921;DHT22;1975;49.356;6.816;2023-02-26T15:42:31;4.30;99.90
3921;DHT22;1975;49.356;6.816;2023-02-26T15:44:58;4.30;99.90
3921;DHT22;1975;49.356;6.816;2023-02-26T15:47:25;4.30;99.90
3921;DHT22;1975;49.356;6.816;2023-02-26T15:49:51;4.30;99.90
3921;DHT22;1975;49.356;6.816;2023-02-26T15:52:19;4.30;99.90
3921;DHT22;1975;49.356;6.816;2023-02-26T15:54:48;4.30;99.90
3921;DHT22;1975;49.356;6.816;2023-02-26T15:57:14;4.30;99.90
3921;DHT22;1975;49.356;6.816;2023-02-26T15:59:44;4.30;99.90
3921;DHT22;1975;49.356;6.816;2023-02-26T16:02:14;4.30;99.90
3921;DHT22;1975;49.356;6.816;2023-02-26T16:04:41;4.30;99.90
3921;DHT22;1975;49.356;6.816;2023-02-26T16:07:08;4.30;99.90
3921;DHT22;1975;49.356;6.816;2023-02-26T16:09:35;4.30;99.90
3921;DHT22;1975;49.356;6.816;2023-02-26T16:12:05;4.30;99.90
3921;DHT22;1975;49.356;6.816;2023-02-26T16:14:39;4.30;99.90
3921;DHT22;1975;49.356;6.816;2023-02-26T16:17:06;4.30;99.90
3921;DHT22;1975;49.356;6.816;2023-02-26T16:19:37;4.30;99.90
3921;DHT22;1975;49.356;6.816;2023-02-26T16:22:49;4.30;99.90
3921;DHT22;1975;49.356;6.816;2023-02-26T16:24:57;4.30;99.90
3921;DHT22;1975;49.356;6.816;2023-02-26T16:27:24;4.30;99.90
3921;DHT22;1975;49.356;6.816;2023-02-26T16:29:51;4.30;99.90
3921;DHT22;1975;49.356;6.816;2023-02-26T16:32:17;4.30;99.90
3921;DHT22;1975;49.356;6.816;2023-02-26T16:34:51;4.30;99.90
3921;DHT22;1975;49.356;6.816;2023-02-26T16:37:30;4.30;99.90
3921;DHT22;1975;49.356;6.816;2023-02-26T16:47:39;4.40;99.90
3921;DHT22;1975;49.356;6.816;2023-02-26T16:50:12;4.30;99.90
3921;DHT22;1975;49.356;6.816;2023-02-26T16:52:39;4.30;99.90
3921;DHT22;1975;49.356;6.816;2023-02-26T16:55:04;4.40;99.90
3921;DHT22;1975;49.356;6.816;2023-02-26T16:57:36;4.30;99.90
3921;DHT22;1975;49.356;6.816;2023-02-26T17:00:23;4.40;99.90
3921;DHT22;1975;49.356;6.816;2023-02-26T17:03:16;4.30;99.90
3921;DHT22;1975;49.356;6.816;2023-02-26T17:05:52;4.40;99.90
3921;DHT22;1975;49.356;6.816;2023-02-26T17:08:19;4.40;99.90
3921;DHT22;1975;49.356;6.816;2023-02-26T17:10:46;4.40;99.90
3921;DHT22;1975;49.356;6.816;2023-02-26T17:13:13;4.40;99.90
3921;DHT22;1975;49.356;6.816;2023-02-26T17:15:39;4.30;99.90
3921;DHT22;1975;49.356;6.816;2023-02-26T17:18:05;4.30;99.90
3921;DHT22;1975;49.356;6.816;2023-02-26T17:20:31;4.30;99.90
3921;DHT22;1975;49.356;6.816;2023-02-26T17:22:57;4.30;99.90
3921;DHT22;1975;49.356;6.816;2023-02-26T17:25:23;4.30;99.90
3921;DHT22;1975;49.356;6.816;2023-02-26T17:27:50;4.30;99.90
3921;DHT22;1975;49.356;6.816;2023-02-26T17:30:19;4.30;99.90
3921;DHT22;1975;49.356;6.816;2023-02-26T17:32:46;4.30;99.90
3921;DHT22;1975;49.356;6.816;2023-02-26T17:35:15;4.30;99.90
3921;DHT22;1975;49.356;6.816;2023-02-26T17:37:41;4.30;99.90
3921;DHT22;1975;49.356;6.816;2023-02-26T17:42:44;4.30;99.90
3921;DHT22;1975;49.356;6.816;2023-02-26T17:45:10;4.30;99.90
3921;DHT22;1975;49.356;6.816;2023-02-26T17:47:35;4.30;99.90
3921;DHT22;1975;49.356;6.816;2023-02-26T17:50:01;4.30;99.90
3921;DHT22;1975;49.356;6.816;2023-02-26T17:52:26;4.30;99.90
3921;DHT22;1975;49.356;6.816;2023-02-26T17:54:52;4.30;99.90
3921;DHT22;1975;49.356;6.816;2023-02-26T17:57:19;4.20;99.90
3921;DHT22;1975;49.356;6.816;2023-02-26T17:59:45;4.20;99.90
3921;DHT22;1975;49.356;6.816;2023-02-26T18:02:21;4.20;99.90
3921;DHT22;1975;49.356;6.816;2023-02-26T18:04:47;4.20;99.90
3921;DHT22;1975;49.356;6.816;2023-02-26T18:07:15;4.20;99.90
3921;DHT22;1975;49.356;6.816;2023-02-26T18:09:45;4.20;99.90
3921;DHT22;1975;49.356;6.816;2023-02-26T18:12:20;4.20;99.90
3921;DHT22;1975;49.356;6.816;2023-02-26T18:14:46;4.20;99.90
3921;DHT22;1975;49.356;6.816;2023-02-26T18:17:14;4.20;99.90
3921;DHT22;1975;49.356;6.816;2023-02-26T18:19:40;4.20;99.90
3921;DHT22;1975;49.356;6.816;2023-02-26T18:22:12;4.20;99.90
3921;DHT22;1975;49.356;6.816;2023-02-26T18:24:38;4.20;99.90
3921;DHT22;1975;49.356;6.816;2023-02-26T18:27:05;4.20;99.90
3921;DHT22;1975;49.356;6.816;2023-02-26T18:29:30;4.20;99.90
3921;DHT22;1975;49.356;6.816;2023-02-26T18:31:55;4.20;99.90
3921;DHT22;1975;49.356;6.816;2023-02-26T18:34:24;4.20;99.90
3921;DHT22;1975;49.356;6.816;2023-02-26T18:36:50;4.10;99.90
3921;DHT22;1975;49.356;6.816;2023-02-26T18:39:15;4.20;99.90
3921;DHT22;1975;49.356;6.816;2023-02-26T18:41:41;4.20;99.90
3921;DHT22;1975;49.356;6.816;2023-02-26T18:44:06;4.20;99.90
3921;DHT22;1975;49.356;6.816;2023-02-26T18:46:32;4.20;99.90
3921;DHT22;1975;49.356;6.816;2023-02-26T18:48:59;4.10;99.90
3921;DHT22;1975;49.356;6.816;2023-02-26T18:51:25;4.10;99.90
3921;DHT22;1975;49.356;6.816;2023-02-26T18:53:51;4.10;99.90
3921;DHT22;1975;49.356;6.816;2023-02-26T18:56:16;4.10;99.90